createdAt,value
2018-06-09T00:00:56.523Z,985.50
2018-06-09T00:01:56.452Z,985.54
2018-06-09T00:02:56.381Z,985.50
2018-06-09T00:03:56.310Z,985.51
2018-06-09T00:04:56.238Z,985.45
2018-06-09T00:05:56.166Z,985.45
2018-06-09T00:06:56.095Z,985.45
2018-06-09T00:07:56.024Z,985.46
2018-06-09T00:08:55.952Z,985.42
2018-06-09T00:09:55.880Z,985.42
2018-06-09T00:10:55.808Z,985.39
2018-06-09T00:11:55.737Z,985.36
2018-06-09T00:12:55.666Z,985.34
2018-06-09T00:13:55.594Z,985.35
2018-06-09T00:14:55.521Z,985.31
2018-06-09T00:15:55.452Z,985.30
2018-06-09T00:16:55.379Z,985.32
2018-06-09T00:17:55.308Z,985.29
2018-06-09T00:18:55.236Z,985.29
2018-06-09T00:19:55.164Z,985.33
2018-06-09T00:20:55.093Z,985.31
2018-06-09T00:21:55.022Z,985.33
2018-06-09T00:22:54.952Z,985.33
2018-06-09T00:23:54.880Z,985.36
2018-06-09T00:24:54.807Z,985.35
2018-06-09T00:25:54.735Z,985.33
2018-06-09T00:26:54.668Z,985.34
2018-06-09T00:27:54.591Z,985.40
2018-06-09T00:28:54.519Z,985.37
2018-06-09T00:29:54.449Z,985.43
2018-06-09T00:30:54.376Z,985.40
2018-06-09T00:31:54.306Z,985.43
2018-06-09T00:32:54.235Z,985.42
2018-06-09T00:33:54.164Z,985.42
2018-06-09T00:34:54.090Z,985.40
2018-06-09T00:35:54.076Z,985.38
2018-06-09T00:36:53.947Z,985.34
2018-06-09T00:37:53.875Z,985.33
2018-06-09T00:38:53.804Z,985.32
2018-06-09T00:39:53.732Z,985.32
2018-06-09T00:40:53.661Z,985.31
2018-06-09T00:41:53.590Z,985.30
2018-06-09T00:42:53.519Z,985.33
2018-06-09T00:43:53.447Z,985.35
2018-06-09T00:44:53.374Z,985.34
2018-06-09T00:45:53.303Z,985.35
2018-06-09T00:46:53.231Z,985.34
2018-06-09T00:47:53.159Z,985.33
2018-06-09T00:48:53.088Z,985.34
2018-06-09T00:49:53.015Z,985.36
2018-06-09T00:50:52.945Z,985.36
2018-06-09T00:51:52.872Z,985.36
2018-06-09T00:52:52.800Z,985.32
2018-06-09T00:53:52.730Z,985.31
2018-06-09T00:54:52.658Z,985.31
2018-06-09T00:55:52.589Z,985.32
2018-06-09T00:56:52.516Z,985.32
2018-06-09T00:57:52.442Z,985.37
2018-06-09T00:58:52.370Z,985.36
2018-06-09T00:59:52.299Z,985.37
2018-06-09T01:00:52.228Z,985.35
2018-06-09T01:01:52.156Z,985.36
2018-06-09T01:02:52.086Z,985.35
2018-06-09T01:03:52.014Z,985.37
2018-06-09T01:04:51.941Z,985.38
2018-06-09T01:05:51.868Z,985.34
2018-06-09T01:06:51.799Z,985.36
2018-06-09T01:07:51.726Z,985.37
2018-06-09T01:08:51.653Z,985.35
2018-06-09T01:09:51.583Z,985.37
2018-06-09T01:10:51.510Z,985.35
2018-06-09T01:11:51.440Z,985.35
2018-06-09T01:12:51.367Z,985.36
2018-06-09T01:13:51.296Z,985.32
2018-06-09T01:14:51.225Z,985.33
2018-06-09T01:15:51.154Z,985.35
2018-06-09T01:16:51.081Z,985.35
2018-06-09T01:17:51.009Z,985.36
2018-06-09T01:18:50.939Z,985.34
2018-06-09T01:19:50.867Z,985.34
2018-06-09T01:20:50.794Z,985.32
2018-06-09T01:21:50.723Z,985.31
2018-06-09T01:22:50.650Z,985.29
2018-06-09T01:23:50.579Z,985.26
2018-06-09T01:24:50.507Z,985.23
2018-06-09T01:25:50.436Z,985.23
2018-06-09T01:26:50.364Z,985.21
2018-06-09T01:27:50.292Z,985.22
2018-06-09T01:28:50.222Z,985.22
2018-06-09T01:29:50.149Z,985.19
2018-06-09T01:30:50.078Z,985.23
2018-06-09T01:31:50.007Z,985.17
2018-06-09T01:32:49.933Z,985.18
2018-06-09T01:33:49.866Z,985.20
2018-06-09T01:34:49.790Z,985.20
2018-06-09T01:35:49.719Z,985.14
2018-06-09T01:36:49.647Z,985.19
2018-06-09T01:37:49.575Z,985.18
2018-06-09T01:38:49.503Z,985.21
2018-06-09T01:39:49.431Z,985.20
2018-06-09T01:40:49.357Z,985.19
2018-06-09T01:41:49.285Z,985.19
2018-06-09T01:42:49.214Z,985.18
2018-06-09T01:43:49.142Z,985.17
2018-06-09T01:44:49.070Z,985.14
2018-06-09T01:45:48.999Z,985.14
2018-06-09T01:46:48.927Z,985.13
2018-06-09T01:47:48.855Z,985.14
2018-06-09T01:48:48.786Z,985.15
2018-06-09T01:49:48.713Z,985.13
2018-06-09T01:50:48.639Z,985.18
2018-06-09T01:51:48.569Z,985.18
2018-06-09T01:52:48.495Z,985.19
2018-06-09T01:53:48.424Z,985.16
2018-06-09T01:54:48.352Z,985.19
2018-06-09T01:55:48.279Z,985.20
2018-06-09T01:56:48.207Z,985.23
2018-06-09T01:57:48.136Z,985.25
2018-06-09T01:58:48.065Z,985.26
2018-06-09T01:59:47.994Z,985.28
2018-06-09T02:00:47.919Z,985.29
2018-06-09T02:01:47.851Z,985.26
2018-06-09T02:02:47.776Z,985.27
2018-06-09T02:03:47.705Z,985.26
2018-06-09T02:04:47.632Z,985.22
2018-06-09T02:05:47.560Z,985.20
2018-06-09T02:06:47.490Z,985.21
2018-06-09T02:07:47.419Z,985.15
2018-06-09T02:08:47.345Z,985.18
2018-06-09T02:09:47.274Z,985.16
2018-06-09T02:10:47.203Z,985.16
2018-06-09T02:11:47.134Z,985.20
2018-06-09T02:12:47.058Z,985.22
2018-06-09T02:13:46.986Z,985.21
2018-06-09T02:14:46.915Z,985.24
2018-06-09T02:15:46.844Z,985.25
2018-06-09T02:16:46.770Z,985.23
2018-06-09T02:17:46.699Z,985.19
2018-06-09T02:18:46.627Z,985.20
2018-06-09T02:19:46.556Z,985.20
2018-06-09T02:20:46.483Z,985.21
2018-06-09T02:21:46.412Z,985.21
2018-06-09T02:22:46.340Z,985.21
2018-06-09T02:23:46.267Z,985.24
2018-06-09T02:24:46.196Z,985.23
2018-06-09T02:25:46.124Z,985.26
2018-06-09T02:26:46.055Z,985.25
2018-06-09T02:27:45.981Z,985.23
2018-06-09T02:28:45.908Z,985.25
2018-06-09T02:29:45.837Z,985.24
2018-06-09T02:30:45.765Z,985.25
2018-06-09T02:31:45.695Z,985.27
2018-06-09T02:32:45.622Z,985.26
2018-06-09T02:33:45.553Z,985.28
2018-06-09T02:34:45.481Z,985.25
2018-06-09T02:35:45.406Z,985.28
2018-06-09T02:36:45.333Z,985.26
2018-06-09T02:37:45.262Z,985.25
2018-06-09T02:38:45.190Z,985.24
2018-06-09T02:39:45.118Z,985.24
2018-06-09T02:40:45.056Z,985.28
2018-06-09T02:41:44.973Z,985.27
2018-06-09T02:42:44.902Z,985.24
2018-06-09T02:43:44.832Z,985.25
2018-06-09T02:44:44.759Z,985.28
2018-06-09T02:45:44.686Z,985.27
2018-06-09T02:46:44.616Z,985.27
2018-06-09T02:47:44.543Z,985.24
2018-06-09T02:48:44.470Z,985.23
2018-06-09T02:49:44.399Z,985.17
2018-06-09T02:50:44.327Z,985.21
2018-06-09T02:51:44.255Z,985.18
2018-06-09T02:52:44.183Z,985.15
2018-06-09T02:53:44.110Z,985.14
2018-06-09T02:54:44.040Z,985.16
2018-06-09T02:55:43.967Z,985.13
2018-06-09T02:56:43.894Z,985.11
2018-06-09T02:57:43.823Z,985.12
2018-06-09T02:58:43.753Z,985.11
2018-06-09T02:59:43.680Z,985.10
2018-06-09T03:00:43.607Z,985.13
2018-06-09T03:01:43.537Z,985.13
2018-06-09T03:02:43.464Z,985.16
2018-06-09T03:03:43.393Z,985.21
2018-06-09T03:04:43.321Z,985.21
2018-06-09T03:05:43.248Z,985.24
2018-06-09T03:06:43.177Z,985.22
2018-06-09T03:07:43.106Z,985.28
2018-06-09T03:08:43.032Z,985.31
2018-06-09T03:09:42.965Z,985.30
2018-06-09T03:10:42.889Z,985.28
2018-06-09T03:11:42.817Z,985.27
2018-06-09T03:12:42.746Z,985.30
2018-06-09T03:13:42.674Z,985.32
2018-06-09T03:14:42.602Z,985.32
2018-06-09T03:15:42.531Z,985.31
2018-06-09T03:16:42.458Z,985.34
2018-06-09T03:17:42.387Z,985.36
2018-06-09T03:18:42.318Z,985.36
2018-06-09T03:19:42.247Z,985.34
2018-06-09T03:20:42.171Z,985.36
2018-06-09T03:21:42.100Z,985.38
2018-06-09T03:22:42.030Z,985.39
2018-06-09T03:23:41.959Z,985.37
2018-06-09T03:24:41.886Z,985.39
2018-06-09T03:25:41.813Z,985.40
2018-06-09T03:26:41.740Z,985.39
2018-06-09T03:27:41.669Z,985.37
2018-06-09T03:28:41.599Z,985.40
2018-06-09T03:29:41.525Z,985.44
2018-06-09T03:30:41.458Z,985.41
2018-06-09T03:31:41.386Z,985.43
2018-06-09T03:32:41.310Z,985.43
2018-06-09T03:33:41.239Z,985.42
2018-06-09T03:34:41.166Z,985.47
2018-06-09T03:35:41.096Z,985.45
2018-06-09T03:36:41.024Z,985.47
2018-06-09T03:37:40.951Z,985.46
2018-06-09T03:38:40.880Z,985.46
2018-06-09T03:39:40.808Z,985.47
2018-06-09T03:40:40.737Z,985.47
2018-06-09T03:41:40.672Z,985.45
2018-06-09T03:42:40.593Z,985.49
2018-06-09T03:43:40.522Z,985.47
2018-06-09T03:44:40.455Z,985.47
2018-06-09T03:45:40.382Z,985.49
2018-06-09T03:46:40.306Z,985.50
2018-06-09T03:47:40.236Z,985.52
2018-06-09T03:48:40.163Z,985.52
2018-06-09T03:49:40.101Z,985.49
2018-06-09T03:50:40.021Z,985.49
2018-06-09T03:51:39.947Z,985.50
2018-06-09T03:52:39.877Z,985.47
2018-06-09T03:53:39.807Z,985.48
2018-06-09T03:54:39.735Z,985.46
2018-06-09T03:55:39.663Z,985.38
2018-06-09T03:56:39.590Z,985.40
2018-06-09T03:57:39.519Z,985.40
2018-06-09T03:58:39.450Z,985.45
2018-06-09T03:59:39.380Z,985.50
2018-06-09T04:00:39.305Z,985.54
2018-06-09T04:01:39.234Z,985.54
2018-06-09T04:02:39.163Z,985.57
2018-06-09T04:03:39.094Z,985.56
2018-06-09T04:04:39.020Z,985.55
2018-06-09T04:05:38.948Z,985.55
2018-06-09T04:06:38.877Z,985.53
2018-06-09T04:07:38.806Z,985.52
2018-06-09T04:08:38.734Z,985.49
2018-06-09T04:09:38.663Z,985.49
2018-06-09T04:10:38.592Z,985.51
2018-06-09T04:11:38.523Z,985.53
2018-06-09T04:12:38.451Z,985.52
2018-06-09T04:13:38.380Z,985.51
2018-06-09T04:14:38.308Z,985.49
2018-06-09T04:15:38.237Z,985.50
2018-06-09T04:16:38.166Z,985.52
2018-06-09T04:17:38.095Z,985.51
2018-06-09T04:18:38.024Z,985.51
2018-06-09T04:19:37.953Z,985.52
2018-06-09T04:20:37.890Z,985.46
2018-06-09T04:21:37.814Z,985.50
2018-06-09T04:22:37.890Z,985.53
2018-06-09T04:23:37.674Z,985.54
2018-06-09T04:24:37.598Z,985.53
2018-06-09T04:25:37.530Z,985.54
2018-06-09T04:26:37.457Z,985.51
2018-06-09T04:27:37.386Z,985.56
2018-06-09T04:28:37.315Z,985.52
2018-06-09T04:29:37.245Z,985.60
2018-06-09T04:30:37.176Z,985.56
2018-06-09T04:31:37.105Z,985.58
2018-06-09T04:32:37.033Z,985.58
2018-06-09T04:33:36.995Z,985.58
2018-06-09T04:34:36.893Z,985.55
2018-06-09T04:35:36.822Z,985.60
2018-06-09T04:36:36.750Z,985.57
2018-06-09T04:37:36.680Z,985.60
2018-06-09T04:38:36.610Z,985.64
2018-06-09T04:39:36.540Z,985.62
2018-06-09T04:40:36.470Z,985.62
2018-06-09T04:41:36.397Z,985.65
2018-06-09T04:42:36.327Z,985.68
2018-06-09T04:43:36.257Z,985.67
2018-06-09T04:44:36.184Z,985.68
2018-06-09T04:45:36.115Z,985.69
2018-06-09T04:46:36.044Z,985.68
2018-06-09T04:47:35.973Z,985.72
2018-06-09T04:48:35.902Z,985.68
2018-06-09T04:49:35.833Z,985.71
2018-06-09T04:50:35.761Z,985.66
2018-06-09T04:51:35.692Z,985.65
2018-06-09T04:52:35.621Z,985.65
2018-06-09T04:53:35.550Z,985.65
2018-06-09T04:54:35.478Z,985.68
2018-06-09T04:55:35.411Z,985.68
2018-06-09T04:56:35.337Z,985.69
2018-06-09T04:57:35.271Z,985.70
2018-06-09T04:58:35.196Z,985.71
2018-06-09T04:59:35.163Z,985.72
2018-06-09T05:00:35.054Z,985.69
2018-06-09T05:01:34.985Z,985.70
2018-06-09T05:02:34.912Z,985.70
2018-06-09T05:03:34.843Z,985.71
2018-06-09T05:04:34.771Z,985.69
2018-06-09T05:05:34.700Z,985.71
2018-06-09T05:06:34.631Z,985.73
2018-06-09T05:07:34.561Z,985.69
2018-06-09T05:08:34.489Z,985.73
2018-06-09T05:09:34.421Z,985.73
2018-06-09T05:10:34.347Z,985.74
2018-06-09T05:11:34.278Z,985.73
2018-06-09T05:12:34.206Z,985.75
2018-06-09T05:13:34.136Z,985.68
2018-06-09T05:14:34.067Z,985.71
2018-06-09T05:15:33.996Z,985.70
2018-06-09T05:16:33.924Z,985.68
2018-06-09T05:17:33.855Z,985.71
2018-06-09T05:18:33.785Z,985.73
2018-06-09T05:19:33.714Z,985.78
2018-06-09T05:20:33.647Z,985.82
2018-06-09T05:21:33.572Z,985.85
2018-06-09T05:22:33.503Z,985.85
2018-06-09T05:23:33.432Z,985.86
2018-06-09T05:24:33.361Z,985.89
2018-06-09T05:25:33.291Z,985.88
2018-06-09T05:26:33.223Z,985.88
2018-06-09T05:27:33.153Z,985.88
2018-06-09T05:28:33.081Z,985.88
2018-06-09T05:29:33.011Z,985.89
2018-06-09T05:30:32.941Z,985.88
2018-06-09T05:31:32.872Z,985.91
2018-06-09T05:32:32.800Z,985.89
2018-06-09T05:33:32.730Z,985.89
2018-06-09T05:34:32.663Z,985.90
2018-06-09T05:35:32.591Z,985.87
2018-06-09T05:36:32.523Z,985.90
2018-06-09T05:37:32.452Z,985.92
2018-06-09T05:38:32.383Z,985.87
2018-06-09T05:39:32.312Z,985.88
2018-06-09T05:40:32.242Z,985.89
2018-06-09T05:41:32.172Z,985.94
2018-06-09T05:42:32.102Z,985.96
2018-06-09T05:43:32.034Z,985.93
2018-06-09T05:44:31.963Z,985.92
2018-06-09T05:45:31.894Z,985.98
2018-06-09T05:46:31.825Z,985.97
2018-06-09T05:47:31.755Z,985.94
2018-06-09T05:48:31.685Z,985.95
2018-06-09T05:49:31.649Z,985.97
2018-06-09T05:50:31.547Z,985.97
2018-06-09T05:51:31.479Z,986.03
2018-06-09T05:52:31.408Z,986.00
2018-06-09T05:53:31.339Z,986.02
2018-06-09T05:54:31.270Z,985.99
2018-06-09T05:55:31.235Z,986.01
2018-06-09T05:56:31.132Z,986.00
2018-06-09T05:57:31.064Z,986.03
2018-06-09T05:58:30.994Z,986.04
2018-06-09T05:59:30.925Z,986.04
2018-06-09T06:00:30.858Z,986.03
2018-06-09T06:01:30.787Z,986.02
2018-06-09T06:02:30.719Z,986.02
2018-06-09T06:03:30.649Z,986.05
2018-06-09T06:04:30.580Z,986.04
2018-06-09T06:05:30.512Z,986.06
2018-06-09T06:06:30.442Z,986.03
2018-06-09T06:07:30.374Z,986.05
2018-06-09T06:08:30.305Z,986.08
2018-06-09T06:09:30.236Z,986.08
2018-06-09T06:10:30.167Z,986.10
2018-06-09T06:11:30.099Z,986.12
2018-06-09T06:12:30.031Z,986.13
2018-06-09T06:13:29.967Z,986.15
2018-06-09T06:14:29.894Z,986.15
2018-06-09T06:15:29.824Z,986.15
2018-06-09T06:16:29.755Z,986.17
2018-06-09T06:17:29.688Z,986.14
2018-06-09T06:18:29.620Z,986.14
2018-06-09T06:19:29.551Z,986.17
2018-06-09T06:20:29.481Z,986.16
2018-06-09T06:21:29.414Z,986.16
2018-06-09T06:22:29.346Z,986.14
2018-06-09T06:23:29.278Z,986.18
2018-06-09T06:24:29.209Z,986.19
2018-06-09T06:25:29.141Z,986.21
2018-06-09T06:26:29.074Z,986.18
2018-06-09T06:27:29.005Z,986.17
2018-06-09T06:28:28.936Z,986.20
2018-06-09T06:29:28.869Z,986.23
2018-06-09T06:30:28.805Z,986.20
2018-06-09T06:31:28.732Z,986.19
2018-06-09T06:32:28.667Z,986.21
2018-06-09T06:33:28.596Z,986.21
2018-06-09T06:34:28.529Z,986.17
2018-06-09T06:35:28.461Z,986.18
2018-06-09T06:36:28.390Z,986.15
2018-06-09T06:37:28.323Z,986.18
2018-06-09T06:38:28.255Z,986.22
2018-06-09T06:39:28.187Z,986.22
2018-06-09T06:40:28.116Z,986.20
2018-06-09T06:41:28.052Z,986.26
2018-06-09T06:42:27.987Z,986.26
2018-06-09T06:43:27.914Z,986.22
2018-06-09T06:44:27.846Z,986.20
2018-06-09T06:45:27.778Z,986.19
2018-06-09T06:46:27.710Z,986.18
2018-06-09T06:47:27.644Z,986.17
2018-06-09T06:48:27.573Z,986.19
2018-06-09T06:49:27.506Z,986.19
2018-06-09T06:50:27.437Z,986.22
2018-06-09T06:51:27.369Z,986.21
2018-06-09T06:52:27.301Z,986.20
2018-06-09T06:53:27.232Z,986.20
2018-06-09T06:54:27.164Z,986.19
2018-06-09T06:55:27.097Z,986.14
2018-06-09T06:56:27.028Z,986.14
2018-06-09T06:57:26.960Z,986.19
2018-06-09T06:58:26.893Z,986.18
2018-06-09T06:59:26.824Z,986.21
2018-06-09T07:00:26.756Z,986.20
2018-06-09T07:01:26.687Z,986.20
2018-06-09T07:02:26.619Z,986.23
2018-06-09T07:03:26.551Z,986.20
2018-06-09T07:04:26.483Z,986.20
2018-06-09T07:05:26.415Z,986.21
2018-06-09T07:06:26.348Z,986.20
2018-06-09T07:07:26.281Z,986.18
2018-06-09T07:08:26.210Z,986.20
2018-06-09T07:09:26.142Z,986.22
2018-06-09T07:10:26.076Z,986.24
2018-06-09T07:11:26.007Z,986.26
2018-06-09T07:12:25.939Z,986.24
2018-06-09T07:13:25.899Z,986.24
2018-06-09T07:14:25.802Z,986.26
2018-06-09T07:15:25.735Z,986.26
2018-06-09T07:16:25.666Z,986.29
2018-06-09T07:17:25.599Z,986.33
2018-06-09T07:18:25.531Z,986.28
2018-06-09T07:19:25.463Z,986.33
2018-06-09T07:20:25.395Z,986.29
2018-06-09T07:21:25.326Z,986.30
2018-06-09T07:22:25.261Z,986.32
2018-06-09T07:23:25.192Z,986.31
2018-06-09T07:24:25.132Z,986.33
2018-06-09T07:25:25.057Z,986.30
2018-06-09T07:26:24.988Z,986.36
2018-06-09T07:27:24.922Z,986.37
2018-06-09T07:28:24.852Z,986.33
2018-06-09T07:29:24.785Z,986.35
2018-06-09T07:30:24.716Z,986.35
2018-06-09T07:31:24.647Z,986.37
2018-06-09T07:32:24.579Z,986.35
2018-06-09T07:33:24.513Z,986.30
2018-06-09T07:34:24.443Z,986.33
2018-06-09T07:35:24.375Z,986.29
2018-06-09T07:36:24.305Z,986.30
2018-06-09T07:37:24.237Z,986.26
2018-06-09T07:38:24.169Z,986.29
2018-06-09T07:39:24.101Z,986.31
2018-06-09T07:40:24.031Z,986.27
2018-06-09T07:41:23.962Z,986.30
2018-06-09T07:42:23.894Z,986.32
2018-06-09T07:43:23.826Z,986.31
2018-06-09T07:44:23.758Z,986.32
2018-06-09T07:45:23.689Z,986.32
2018-06-09T07:46:23.620Z,986.31
2018-06-09T07:47:23.556Z,986.32
2018-06-09T07:48:23.483Z,986.31
2018-06-09T07:49:23.414Z,986.30
2018-06-09T07:50:23.347Z,986.30
2018-06-09T07:51:23.277Z,986.31
2018-06-09T07:52:23.207Z,986.31
2018-06-09T07:53:23.143Z,986.28
2018-06-09T07:54:23.070Z,986.29
2018-06-09T07:55:23.002Z,986.31
2018-06-09T07:56:22.933Z,986.29
2018-06-09T07:57:22.865Z,986.32
2018-06-09T07:58:22.796Z,986.33
2018-06-09T07:59:22.727Z,986.32
2018-06-09T08:00:22.657Z,986.27
2018-06-09T08:01:22.589Z,986.28
2018-06-09T08:02:22.522Z,986.24
2018-06-09T08:03:22.452Z,986.25
2018-06-09T08:04:22.383Z,986.25
2018-06-09T08:05:22.315Z,986.20
2018-06-09T08:06:22.246Z,986.21
2018-06-09T08:07:22.178Z,986.19
2018-06-09T08:08:22.109Z,986.19
2018-06-09T08:09:22.041Z,986.21
2018-06-09T08:10:21.976Z,986.22
2018-06-09T08:11:21.908Z,986.23
2018-06-09T08:12:21.835Z,986.21
2018-06-09T08:13:21.767Z,986.25
2018-06-09T08:14:21.700Z,986.23
2018-06-09T08:15:21.633Z,986.23
2018-06-09T08:16:21.562Z,986.24
2018-06-09T08:17:21.494Z,986.20
2018-06-09T08:18:21.430Z,986.23
2018-06-09T08:19:21.368Z,986.19
2018-06-09T08:20:21.290Z,986.18
2018-06-09T08:21:21.222Z,986.19
2018-06-09T08:22:21.154Z,986.14
2018-06-09T08:23:21.087Z,986.16
2018-06-09T08:24:21.019Z,986.14
2018-06-09T08:25:20.950Z,986.12
2018-06-09T08:26:20.882Z,986.11
2018-06-09T08:27:20.814Z,986.11
2018-06-09T08:28:20.746Z,986.08
2018-06-09T08:29:20.678Z,986.08
2018-06-09T08:30:20.611Z,986.06
2018-06-09T08:31:20.544Z,986.03
2018-06-09T08:32:20.476Z,986.04
2018-06-09T08:33:20.407Z,986.06
2018-06-09T08:34:20.341Z,986.04
2018-06-09T08:35:20.273Z,986.05
2018-06-09T08:36:20.233Z,986.04
2018-06-09T08:37:20.137Z,986.03
2018-06-09T08:38:20.070Z,985.98
2018-06-09T08:39:20.004Z,985.99
2018-06-09T08:40:19.936Z,986.02
2018-06-09T08:41:19.867Z,986.03
2018-06-09T08:42:19.802Z,986.03
2018-06-09T08:43:19.734Z,986.04
2018-06-09T08:44:19.665Z,986.05
2018-06-09T08:45:19.598Z,986.02
2018-06-09T08:46:19.531Z,986.01
2018-06-09T08:47:19.464Z,986.05
2018-06-09T08:48:19.398Z,986.06
2018-06-09T08:49:19.332Z,986.05
2018-06-09T08:50:19.262Z,986.07
2018-06-09T08:51:19.194Z,986.04
2018-06-09T08:52:19.128Z,986.06
2018-06-09T08:53:19.059Z,986.05
2018-06-09T08:54:18.992Z,986.06
2018-06-09T08:55:18.925Z,986.06
2018-06-09T08:56:18.857Z,986.08
2018-06-09T08:57:18.790Z,986.03
2018-06-09T08:58:18.723Z,986.04
2018-06-09T08:59:18.657Z,986.04
2018-06-09T09:00:18.587Z,986.01
2018-06-09T09:01:18.521Z,986.02
2018-06-09T09:02:18.454Z,986.04
2018-06-09T09:03:18.388Z,986.05
2018-06-09T09:04:18.323Z,986.04
2018-06-09T09:05:18.254Z,986.05
2018-06-09T09:06:18.187Z,986.05
2018-06-09T09:07:18.118Z,986.07
2018-06-09T09:08:18.052Z,986.06
2018-06-09T09:09:17.992Z,986.09
2018-06-09T09:10:17.916Z,986.11
2018-06-09T09:11:17.849Z,986.09
2018-06-09T09:12:17.782Z,986.14
2018-06-09T09:13:17.714Z,986.12
2018-06-09T09:14:17.649Z,986.08
2018-06-09T09:15:17.581Z,986.10
2018-06-09T09:16:17.513Z,986.11
2018-06-09T09:17:17.446Z,986.11
2018-06-09T09:18:17.381Z,986.13
2018-06-09T09:19:17.352Z,986.09
2018-06-09T09:20:17.245Z,986.08
2018-06-09T09:21:17.180Z,986.09
2018-06-09T09:22:17.111Z,986.12
2018-06-09T09:23:17.048Z,986.12
2018-06-09T09:24:16.977Z,986.06
2018-06-09T09:25:16.910Z,986.08
2018-06-09T09:26:16.844Z,986.10
2018-06-09T09:27:16.778Z,986.13
2018-06-09T09:28:16.714Z,986.14
2018-06-09T09:29:16.644Z,986.17
2018-06-09T09:30:16.577Z,986.14
2018-06-09T09:31:16.512Z,986.16
2018-06-09T09:32:16.442Z,986.16
2018-06-09T09:33:16.381Z,986.16
2018-06-09T09:34:16.311Z,986.16
2018-06-09T09:35:16.243Z,986.12
2018-06-09T09:36:16.177Z,986.16
2018-06-09T09:37:16.109Z,986.18
2018-06-09T09:38:16.044Z,986.18
2018-06-09T09:39:15.976Z,986.16
2018-06-09T09:40:15.909Z,986.17
2018-06-09T09:41:15.844Z,986.20
2018-06-09T09:42:15.776Z,986.18
2018-06-09T09:43:15.709Z,986.17
2018-06-09T09:44:15.642Z,986.14
2018-06-09T09:45:15.576Z,986.12
2018-06-09T09:46:15.514Z,986.10
2018-06-09T09:47:15.443Z,986.09
2018-06-09T09:48:15.376Z,986.08
2018-06-09T09:49:15.310Z,986.09
2018-06-09T09:50:15.244Z,986.07
2018-06-09T09:51:15.177Z,986.10
2018-06-09T09:52:15.111Z,986.09
2018-06-09T09:53:15.045Z,986.06
2018-06-09T09:54:14.978Z,986.05
2018-06-09T09:55:14.911Z,986.06
2018-06-09T09:56:14.844Z,986.06
2018-06-09T09:57:14.778Z,986.04
2018-06-09T09:58:14.713Z,986.08
2018-06-09T09:59:14.646Z,986.07
2018-06-09T10:00:14.590Z,986.04
2018-06-09T10:01:14.512Z,986.05
2018-06-09T10:02:14.445Z,986.07
2018-06-09T10:03:14.379Z,986.08
2018-06-09T10:04:14.313Z,986.10
2018-06-09T10:05:14.248Z,986.07
2018-06-09T10:06:14.181Z,986.04
2018-06-09T10:07:14.115Z,986.04
2018-06-09T10:08:14.049Z,986.07
2018-06-09T10:09:13.981Z,986.10
2018-06-09T10:10:13.915Z,986.08
2018-06-09T10:11:13.849Z,986.08
2018-06-09T10:12:13.782Z,986.05
2018-06-09T10:13:13.718Z,986.08
2018-06-09T10:14:13.651Z,986.09
2018-06-09T10:15:13.584Z,986.11
2018-06-09T10:16:13.518Z,986.09
2018-06-09T10:17:13.452Z,986.05
2018-06-09T10:18:13.389Z,986.07
2018-06-09T10:19:13.329Z,986.07
2018-06-09T10:20:13.253Z,986.08
2018-06-09T10:21:13.187Z,986.05
2018-06-09T10:22:13.122Z,986.05
2018-06-09T10:23:13.055Z,986.06
2018-06-09T10:24:12.995Z,986.09
2018-06-09T10:25:12.922Z,986.08
2018-06-09T10:26:12.857Z,986.06
2018-06-09T10:27:12.794Z,986.06
2018-06-09T10:28:12.725Z,986.03
2018-06-09T10:29:12.659Z,986.02
2018-06-09T10:30:12.593Z,986.02
2018-06-09T10:31:12.528Z,985.97
2018-06-09T10:32:12.460Z,985.98
2018-06-09T10:33:12.393Z,985.96
2018-06-09T10:34:12.329Z,985.96
2018-06-09T10:35:12.262Z,985.98
2018-06-09T10:36:12.195Z,985.98
2018-06-09T10:37:12.139Z,985.98
2018-06-09T10:38:12.066Z,985.93
2018-06-09T10:39:11.999Z,985.95
2018-06-09T10:40:11.932Z,985.93
2018-06-09T10:41:11.866Z,985.93
2018-06-09T10:42:11.801Z,985.89
2018-06-09T10:43:11.735Z,985.86
2018-06-09T10:44:11.668Z,985.89
2018-06-09T10:45:11.650Z,985.83
2018-06-09T10:46:11.538Z,985.85
2018-06-09T10:47:11.476Z,985.85
2018-06-09T10:48:11.405Z,985.86
2018-06-09T10:49:11.339Z,985.85
2018-06-09T10:50:11.275Z,985.85
2018-06-09T10:51:11.218Z,985.87
2018-06-09T10:52:11.142Z,985.85
2018-06-09T10:53:11.078Z,985.90
2018-06-09T10:54:11.012Z,985.88
2018-06-09T10:55:10.948Z,985.92
2018-06-09T10:56:10.882Z,985.91
2018-06-09T10:57:10.826Z,985.93
2018-06-09T10:58:10.752Z,985.94
2018-06-09T10:59:10.685Z,985.90
2018-06-09T11:00:10.620Z,985.93
2018-06-09T11:01:10.555Z,985.89
2018-06-09T11:02:10.491Z,985.87
2018-06-09T11:03:10.426Z,985.84
2018-06-09T11:04:10.360Z,985.83
2018-06-09T11:05:10.300Z,985.83
2018-06-09T11:06:10.232Z,985.84
2018-06-09T11:07:10.166Z,985.85
2018-06-09T11:08:10.100Z,985.84
2018-06-09T11:09:10.036Z,985.79
2018-06-09T11:10:10.032Z,985.79
2018-06-09T11:11:09.907Z,985.79
2018-06-09T11:12:09.841Z,985.76
2018-06-09T11:13:09.776Z,985.76
2018-06-09T11:14:09.712Z,985.75
2018-06-09T11:15:09.649Z,985.76
2018-06-09T11:16:09.582Z,985.76
2018-06-09T11:17:09.519Z,985.73
2018-06-09T11:18:09.455Z,985.72
2018-06-09T11:19:09.390Z,985.77
2018-06-09T11:20:09.327Z,985.74
2018-06-09T11:21:09.264Z,985.73
2018-06-09T11:22:09.204Z,985.70
2018-06-09T11:23:09.137Z,985.73
2018-06-09T11:24:09.074Z,985.74
2018-06-09T11:25:09.014Z,985.79
2018-06-09T11:26:08.952Z,985.81
2018-06-09T11:27:08.894Z,985.85
2018-06-09T11:28:08.828Z,985.83
2018-06-09T11:29:08.768Z,985.76
2018-06-09T11:30:08.706Z,985.77
2018-06-09T11:31:08.645Z,985.76
2018-06-09T11:32:08.585Z,985.78
2018-06-09T11:33:08.528Z,985.76
2018-06-09T11:34:08.467Z,985.69
2018-06-09T11:35:08.411Z,985.70
2018-06-09T11:36:08.348Z,985.66
2018-06-09T11:37:08.289Z,985.71
2018-06-09T11:38:08.231Z,985.67
2018-06-09T11:39:08.172Z,985.69
2018-06-09T11:40:08.115Z,985.68
2018-06-09T11:41:08.057Z,985.67
2018-06-09T11:42:07.999Z,985.70
2018-06-09T11:43:07.944Z,985.63
2018-06-09T11:44:07.884Z,985.60
2018-06-09T11:45:07.829Z,985.55
2018-06-09T11:46:07.773Z,985.57
2018-06-09T11:47:07.742Z,985.56
2018-06-09T11:48:07.662Z,985.52
2018-06-09T11:49:07.604Z,985.50
2018-06-09T11:50:07.549Z,985.53
2018-06-09T11:51:07.493Z,985.52
2018-06-09T11:52:07.437Z,985.51
2018-06-09T11:53:07.382Z,986.12
2018-06-09T11:54:07.328Z,986.53
2018-06-09T11:55:07.274Z,986.23
2018-06-09T11:56:07.216Z,986.13
2018-06-09T11:57:07.162Z,986.09
2018-06-09T11:58:07.108Z,986.08
2018-06-09T11:59:07.054Z,986.00
2018-06-09T12:00:06.998Z,985.98
2018-06-09T12:01:06.948Z,985.95
2018-06-09T12:02:06.890Z,986.00
2018-06-09T12:03:06.836Z,985.92
2018-06-09T12:04:06.789Z,985.94
2018-06-09T12:05:06.728Z,985.96
2018-06-09T12:06:06.675Z,985.93
2018-06-09T12:07:06.624Z,985.88
2018-06-09T12:08:06.567Z,985.83
2018-06-09T12:09:06.512Z,985.77
2018-06-09T12:10:06.460Z,985.76
2018-06-09T12:11:06.464Z,985.78
2018-06-09T12:12:06.351Z,985.86
2018-06-09T12:13:06.298Z,985.81
2018-06-09T12:14:06.244Z,985.79
2018-06-09T12:15:06.191Z,985.73
2018-06-09T12:16:06.137Z,985.75
2018-06-09T12:17:06.083Z,985.78
2018-06-09T12:18:06.033Z,985.79
2018-06-09T12:19:05.979Z,985.78
2018-06-09T12:20:05.923Z,985.77
2018-06-09T12:21:05.870Z,985.71
2018-06-09T12:22:05.817Z,985.64
2018-06-09T12:23:05.766Z,985.65
2018-06-09T12:24:05.712Z,985.65
2018-06-09T12:25:05.660Z,985.66
2018-06-09T12:26:05.607Z,985.62
2018-06-09T12:27:05.555Z,985.57
2018-06-09T12:28:05.500Z,985.62